Hammondsport, New York
Current Conditions -  °F | °C
As of 3:53 PM on Friday 28 Nov 2014 (Local Time) from KPEO Reporting Station
Clear Clear  
Wind Chill: 13°   Ceiling: Unl
Heat Index: 25°   Visibility: 10mi
Dew Point: 11°   Wind: 14mph
Humidity: 55%   Direction: 260°W
Pressure: 30.19"   Gusts: NA
Location:  42.41°N, 77.22°W
Report Text: KPEO 282053Z AUTO 26012KT 10SM CLR M04/M12 A3019 RMK AO2 SLP239 T10391117 53001
Loading
Personal Weather Stations






























Interactive Weather Map New forecast layout! Learn more

10-Day Weather Forecast

Advertisements
Track Severe Weather on mobile